createdAt,value
2022-12-31T00:01:31.224Z,10.05
2022-12-31T00:03:59.336Z,10.33
2022-12-31T00:06:34.827Z,12.17
2022-12-31T00:09:07.105Z,12.26
2022-12-31T00:11:36.710Z,11.41
2022-12-31T00:14:05.570Z,10.80
2022-12-31T00:16:38.292Z,10.39
2022-12-31T00:19:07.923Z,10.82
2022-12-31T00:21:36.787Z,12.71
2022-12-31T00:24:06.028Z,12.84
2022-12-31T00:26:35.159Z,11.95
2022-12-31T00:29:04.320Z,11.27
2022-12-31T00:31:38.266Z,10.81
2022-12-31T00:34:06.871Z,10.47
2022-12-31T00:36:37.592Z,10.67
2022-12-31T00:39:08.284Z,12.55
2022-12-31T00:41:36.764Z,13.04
2022-12-31T00:44:04.872Z,12.15
2022-12-31T00:46:32.998Z,11.44
2022-12-31T00:49:00.981Z,10.96
2022-12-31T00:51:29.325Z,10.60
2022-12-31T00:53:58.216Z,11.06
2022-12-31T00:56:29.609Z,12.99
2022-12-31T00:58:58.968Z,13.24
2022-12-31T01:01:33.500Z,12.29
2022-12-31T01:04:18.293Z,11.57
2022-12-31T01:06:46.938Z,11.05
2022-12-31T01:09:16.342Z,10.73
2022-12-31T01:11:44.747Z,10.91
2022-12-31T01:14:18.829Z,12.79
2022-12-31T01:16:54.004Z,13.45
2022-12-31T01:19:28.997Z,12.50
2022-12-31T01:21:57.270Z,11.74
2022-12-31T01:24:25.469Z,11.26
2022-12-31T01:26:57.691Z,10.91
2022-12-31T01:29:25.863Z,11.01
2022-12-31T01:31:53.854Z,12.80
2022-12-31T01:34:22.018Z,13.31
2022-12-31T01:36:50.190Z,12.46
2022-12-31T01:39:18.096Z,11.76
2022-12-31T01:41:47.605Z,11.27
2022-12-31T01:44:27.744Z,11.06
2022-12-31T01:47:02.553Z,12.67
2022-12-31T01:49:54.699Z,13.84
2022-12-31T01:52:27.911Z,12.88
2022-12-31T01:55:10.244Z,12.09
2022-12-31T01:57:38.515Z,11.54
2022-12-31T02:00:08.394Z,11.19
2022-12-31T02:02:36.646Z,11.52
2022-12-31T02:05:31.983Z,13.43
2022-12-31T02:08:00.094Z,14.07
2022-12-31T02:10:28.148Z,13.11
2022-12-31T02:12:56.204Z,12.34
2022-12-31T02:15:38.812Z,11.83
2022-12-31T02:18:17.569Z,11.43
2022-12-31T02:21:28.680Z,11.70
2022-12-31T02:24:08.269Z,14.08
2022-12-31T02:26:58.362Z,14.11
2022-12-31T02:30:00.298Z,13.01
2022-12-31T02:32:48.093Z,12.22
2022-12-31T02:35:38.227Z,11.75
2022-12-31T02:38:12.627Z,11.68
2022-12-31T02:40:40.776Z,13.44
2022-12-31T02:43:08.660Z,14.58
2022-12-31T02:45:41.625Z,13.72
2022-12-31T02:48:38.538Z,12.84
2022-12-31T02:51:27.489Z,12.17
2022-12-31T02:54:38.415Z,11.73
2022-12-31T02:57:16.881Z,12.54
2022-12-31T03:00:10.448Z,14.35
2022-12-31T03:02:41.666Z,13.73
2022-12-31T03:05:10.215Z,12.85
2022-12-31T03:07:40.636Z,12.26
2022-12-31T03:10:09.490Z,11.93
2022-12-31T03:12:50.032Z,13.16
2022-12-31T03:15:22.337Z,14.48
2022-12-31T03:17:51.514Z,13.69
2022-12-31T03:20:40.341Z,12.88
2022-12-31T03:23:11.104Z,12.25
2022-12-31T03:25:39.093Z,12.28
2022-12-31T03:28:11.390Z,14.03
2022-12-31T03:30:42.652Z,14.76
2022-12-31T03:33:11.372Z,13.80
2022-12-31T03:35:41.240Z,12.98
2022-12-31T03:38:09.325Z,12.41
2022-12-31T03:40:41.454Z,12.48
2022-12-31T03:43:09.814Z,14.28
2022-12-31T03:45:38.563Z,15.26
2022-12-31T03:48:08.745Z,14.32
2022-12-31T03:50:37.253Z,13.39
2022-12-31T03:53:06.010Z,12.76
2022-12-31T03:55:33.990Z,12.41
2022-12-31T03:58:01.855Z,13.60
2022-12-31T04:00:30.004Z,14.90
2022-12-31T04:02:58.160Z,14.16
2022-12-31T04:05:26.334Z,13.30
2022-12-31T04:07:55.707Z,12.70
2022-12-31T04:10:23.723Z,12.77
2022-12-31T04:12:52.203Z,14.51
2022-12-31T04:15:21.718Z,15.23
2022-12-31T04:17:49.694Z,14.25
2022-12-31T04:20:17.702Z,13.38
2022-12-31T04:22:45.644Z,12.79
2022-12-31T04:25:13.512Z,12.85
2022-12-31T04:27:43.884Z,14.62
2022-12-31T04:30:13.888Z,15.57
2022-12-31T04:32:42.246Z,14.59
2022-12-31T04:35:11.645Z,13.64
2022-12-31T04:37:39.738Z,12.99
2022-12-31T04:40:09.896Z,12.52
2022-12-31T04:42:37.928Z,13.18
2022-12-31T04:45:06.891Z,15.03
2022-12-31T04:47:34.952Z,15.05
2022-12-31T04:50:02.943Z,14.00
2022-12-31T04:52:30.911Z,13.20
2022-12-31T04:54:58.833Z,12.66
2022-12-31T04:57:26.930Z,12.93
2022-12-31T04:59:54.905Z,14.83
2022-12-31T05:02:22.917Z,15.47
2022-12-31T05:04:51.153Z,14.42
2022-12-31T05:07:19.158Z,13.52
2022-12-31T05:09:47.000Z,12.90
2022-12-31T05:12:15.065Z,13.29
2022-12-31T05:14:43.225Z,15.10
2022-12-31T05:17:11.237Z,15.21
2022-12-31T05:19:39.189Z,14.17
2022-12-31T05:22:25.631Z,13.37
2022-12-31T05:24:53.553Z,12.76
2022-12-31T05:27:22.094Z,13.33
2022-12-31T05:29:50.353Z,15.18
2022-12-31T05:32:18.294Z,15.34
2022-12-31T05:34:46.232Z,14.27
2022-12-31T05:37:14.272Z,13.42
2022-12-31T05:39:42.526Z,12.84
2022-12-31T05:42:10.551Z,13.04
2022-12-31T05:44:38.508Z,14.91
2022-12-31T05:47:06.473Z,15.67
2022-12-31T05:49:34.455Z,14.64
2022-12-31T05:52:02.460Z,13.71
2022-12-31T05:54:30.390Z,13.06
2022-12-31T05:56:58.323Z,12.66
2022-12-31T05:59:26.581Z,13.84
2022-12-31T06:01:55.007Z,15.42
2022-12-31T06:04:23.280Z,14.90
2022-12-31T06:06:51.525Z,13.87
2022-12-31T06:09:20.170Z,13.15
2022-12-31T06:11:49.723Z,13.02
2022-12-31T06:14:17.750Z,14.66
2022-12-31T06:16:45.846Z,15.60
2022-12-31T06:19:13.853Z,14.62
2022-12-31T06:21:41.818Z,13.67
2022-12-31T06:24:09.719Z,13.02
2022-12-31T06:26:37.722Z,13.05
2022-12-31T06:29:05.707Z,14.76
2022-12-31T06:31:33.734Z,15.66
2022-12-31T06:34:01.745Z,14.69
2022-12-31T06:36:29.745Z,13.76
2022-12-31T06:38:57.861Z,13.11
2022-12-31T06:41:25.930Z,13.08
2022-12-31T06:43:54.038Z,14.77
2022-12-31T06:46:22.044Z,15.72
2022-12-31T06:48:50.053Z,14.78
2022-12-31T06:51:20.497Z,13.85
2022-12-31T06:53:51.539Z,13.22
2022-12-31T06:56:31.201Z,13.62
2022-12-31T06:59:03.032Z,15.59
2022-12-31T07:02:05.612Z,15.66
2022-12-31T07:04:58.379Z,14.39
2022-12-31T07:07:46.610Z,13.57
2022-12-31T07:10:29.040Z,14.53
2022-12-31T07:13:40.694Z,16.02
2022-12-31T07:16:17.776Z,14.93
2022-12-31T07:18:53.248Z,13.99
2022-12-31T07:21:33.670Z,13.48
2022-12-31T07:24:02.168Z,14.86
2022-12-31T07:27:20.404Z,16.09
2022-12-31T07:30:08.304Z,14.92
2022-12-31T07:33:11.253Z,13.96
2022-12-31T07:36:13.110Z,13.71
2022-12-31T07:39:05.674Z,15.77
2022-12-31T07:41:47.859Z,15.97
2022-12-31T07:44:33.901Z,14.78
2022-12-31T07:47:05.192Z,13.92
2022-12-31T07:49:43.572Z,13.95
2022-12-31T07:52:11.835Z,15.80
2022-12-31T07:54:39.732Z,16.30
2022-12-31T07:57:07.787Z,15.27
2022-12-31T08:00:12.249Z,14.41
2022-12-31T08:03:12.581Z,14.36
2022-12-31T08:06:03.283Z,16.38
2022-12-31T08:08:50.689Z,15.85
2022-12-31T08:11:47.110Z,14.89
2022-12-31T08:14:15.922Z,16.24
2022-12-31T08:16:44.452Z,17.18
2022-12-31T08:19:33.096Z,16.21
2022-12-31T08:22:54.888Z,15.10
2022-12-31T08:25:31.431Z,15.85
2022-12-31T08:28:44.223Z,17.42
2022-12-31T08:31:22.252Z,16.52
2022-12-31T08:34:13.385Z,15.47
2022-12-31T08:37:10.820Z,15.73
2022-12-31T08:40:22.670Z,17.48
2022-12-31T08:43:15.775Z,16.47
2022-12-31T08:45:50.230Z,15.41
2022-12-31T08:48:43.241Z,15.37
2022-12-31T08:51:25.389Z,17.31
2022-12-31T08:53:55.335Z,17.66
2022-12-31T08:56:36.550Z,16.55
2022-12-31T08:59:29.506Z,15.63
2022-12-31T09:02:07.226Z,15.85
2022-12-31T09:05:00.165Z,17.72
2022-12-31T09:07:58.661Z,17.31
2022-12-31T09:10:47.085Z,16.16
2022-12-31T09:13:33.256Z,15.58
2022-12-31T09:16:36.058Z,17.06
2022-12-31T09:19:04.187Z,17.38
2022-12-31T09:21:32.567Z,16.48
2022-12-31T09:24:07.435Z,15.80
2022-12-31T09:26:41.131Z,16.14
2022-12-31T09:29:29.775Z,17.88
2022-12-31T09:32:22.598Z,17.41
2022-12-31T09:35:38.448Z,16.43
2022-12-31T09:38:31.409Z,15.82
2022-12-31T09:41:19.062Z,17.41
2022-12-31T09:44:27.663Z,18.23
2022-12-31T09:47:10.523Z,17.04
2022-12-31T09:50:06.188Z,16.26
2022-12-31T09:52:57.694Z,16.27
2022-12-31T09:55:40.491Z,18.05
2022-12-31T09:58:20.301Z,17.53
2022-12-31T10:00:55.934Z,16.67
2022-12-31T10:03:44.790Z,16.09
2022-12-31T10:06:19.207Z,16.49
2022-12-31T10:09:10.998Z,17.98
2022-12-31T10:12:17.467Z,17.50
2022-12-31T10:15:21.659Z,16.54
2022-12-31T10:17:59.540Z,16.22
2022-12-31T10:20:45.063Z,17.68
2022-12-31T10:23:46.384Z,18.38
2022-12-31T10:26:31.982Z,17.31
2022-12-31T10:29:19.319Z,16.58
2022-12-31T10:32:23.741Z,16.51
2022-12-31T10:35:23.368Z,18.33
2022-12-31T10:38:17.524Z,17.94
2022-12-31T10:41:38.780Z,17.06
2022-12-31T10:44:37.616Z,16.56
2022-12-31T10:47:42.855Z,17.71
2022-12-31T10:50:42.089Z,18.83
2022-12-31T10:53:28.121Z,18.09
2022-12-31T10:56:25.631Z,17.65
2022-12-31T10:59:07.215Z,17.47
2022-12-31T11:02:15.981Z,17.46
2022-12-31T11:05:20.718Z,17.57
2022-12-31T11:08:09.444Z,17.74
2022-12-31T11:10:54.028Z,17.89
2022-12-31T11:14:19.489Z,18.04
2022-12-31T11:17:33.631Z,18.22
2022-12-31T11:20:56.021Z,18.30
2022-12-31T11:23:45.756Z,18.24
2022-12-31T11:26:32.038Z,18.10
2022-12-31T11:29:47.551Z,17.94
2022-12-31T11:33:09.417Z,17.74
2022-12-31T11:35:43.231Z,17.64
2022-12-31T11:38:28.086Z,17.65
2022-12-31T11:41:35.971Z,17.67
2022-12-31T11:44:53.494Z,17.68
2022-12-31T11:51:16.445Z,17.64
2022-12-31T11:54:29.721Z,18.83
2022-12-31T11:57:35.379Z,19.96
2022-12-31T12:00:09.535Z,19.26
2022-12-31T12:02:43.788Z,18.84
2022-12-31T12:05:16.522Z,18.58
2022-12-31T12:07:44.915Z,18.40
2022-12-31T12:10:56.153Z,18.27
2022-12-31T12:21:24.450Z,18.34
2022-12-31T12:24:18.213Z,20.12
2022-12-31T12:26:46.535Z,19.67
2022-12-31T12:29:25.761Z,19.00
2022-12-31T12:32:27.433Z,18.50
2022-12-31T12:34:55.791Z,18.10
2022-12-31T12:37:33.388Z,18.42
2022-12-31T12:40:22.889Z,20.18
2022-12-31T12:42:56.282Z,19.86
2022-12-31T12:45:52.062Z,19.12
2022-12-31T12:48:42.655Z,18.56
2022-12-31T12:51:30.978Z,18.20
2022-12-31T12:55:16.399Z,19.24
2022-12-31T12:57:54.804Z,20.25
2022-12-31T13:00:29.904Z,19.45
2022-12-31T13:03:16.543Z,18.89
2022-12-31T13:06:18.196Z,18.50
2022-12-31T13:09:36.118Z,18.19
2022-12-31T13:12:56.805Z,19.53
2022-12-31T13:15:42.940Z,20.42
2022-12-31T13:18:35.479Z,19.58
2022-12-31T13:21:37.636Z,18.96
2022-12-31T13:24:35.794Z,18.54
2022-12-31T13:27:21.398Z,18.22
2022-12-31T13:29:50.128Z,19.07
2022-12-31T13:32:24.090Z,20.37
2022-12-31T13:34:58.265Z,19.81
2022-12-31T13:37:32.465Z,19.13
2022-12-31T13:40:07.713Z,18.70
2022-12-31T13:43:01.448Z,18.36
2022-12-31T13:45:36.298Z,18.29
2022-12-31T13:48:12.147Z,19.88
2022-12-31T13:50:51.399Z,20.50
2022-12-31T13:53:40.406Z,19.68
2022-12-31T13:56:20.131Z,19.00
2022-12-31T13:59:22.939Z,18.59
2022-12-31T14:02:38.182Z,18.31
2022-12-31T14:05:27.151Z,20.09
2022-12-31T14:07:59.174Z,20.07
2022-12-31T14:10:41.761Z,19.31
2022-12-31T14:13:27.863Z,18.76
2022-12-31T14:16:19.625Z,18.35
2022-12-31T14:19:32.503Z,18.78
2022-12-31T14:22:18.555Z,20.61
2022-12-31T14:24:51.205Z,19.97
2022-12-31T14:27:27.151Z,19.25
2022-12-31T14:30:06.941Z,18.76
2022-12-31T14:32:47.152Z,18.36
2022-12-31T14:35:26.878Z,18.22
2022-12-31T14:38:11.218Z,19.82
2022-12-31T14:41:10.262Z,20.42
2022-12-31T14:44:33.047Z,19.44
2022-12-31T14:47:25.295Z,18.67
2022-12-31T14:50:16.253Z,18.22
2022-12-31T14:52:55.151Z,18.71
2022-12-31T14:55:32.029Z,20.35
2022-12-31T14:58:27.900Z,19.91
2022-12-31T15:01:08.708Z,19.07
2022-12-31T15:03:45.818Z,18.53
2022-12-31T15:06:23.424Z,18.14
2022-12-31T15:09:18.169Z,18.47
2022-12-31T15:12:32.748Z,20.35
2022-12-31T15:15:33.552Z,19.87
2022-12-31T15:18:33.822Z,19.02
2022-12-31T15:21:31.587Z,18.48
2022-12-31T15:23:59.963Z,18.12
2022-12-31T15:26:35.079Z,19.01
2022-12-31T15:29:08.954Z,20.34
2022-12-31T15:31:45.969Z,19.69
2022-12-31T15:34:32.398Z,18.99
2022-12-31T15:37:31.525Z,18.47
2022-12-31T15:40:21.480Z,18.17
2022-12-31T15:42:58.337Z,19.67
2022-12-31T15:45:38.938Z,20.08
2022-12-31T15:48:16.566Z,19.26
2022-12-31T15:50:45.034Z,18.64
2022-12-31T15:53:28.371Z,18.20
2022-12-31T15:55:58.878Z,18.20
2022-12-31T15:58:31.171Z,19.79
2022-12-31T16:01:28.951Z,19.93
2022-12-31T16:04:33.770Z,18.98
2022-12-31T16:07:02.731Z,18.30
2022-12-31T16:09:34.319Z,17.91
2022-12-31T16:12:09.933Z,18.53
2022-12-31T16:14:41.083Z,20.00
2022-12-31T16:17:31.173Z,19.49
2022-12-31T16:20:02.025Z,18.61
2022-12-31T16:22:39.200Z,18.11
2022-12-31T16:25:30.735Z,19.15
2022-12-31T16:27:59.634Z,20.20
2022-12-31T16:30:33.410Z,19.40
2022-12-31T16:33:07.171Z,18.66
2022-12-31T16:35:39.506Z,18.12
2022-12-31T16:38:19.205Z,18.61
2022-12-31T16:41:02.517Z,20.15
2022-12-31T16:43:37.840Z,19.53
2022-12-31T16:46:20.772Z,18.74
2022-12-31T16:48:53.525Z,18.15
2022-12-31T16:51:25.794Z,18.59
2022-12-31T16:53:53.865Z,20.14
2022-12-31T16:56:39.343Z,19.71
2022-12-31T16:59:27.213Z,18.84
2022-12-31T17:02:00.642Z,18.21
2022-12-31T17:04:28.765Z,18.02
2022-12-31T17:07:39.288Z,19.40
2022-12-31T17:10:07.331Z,19.50
2022-12-31T17:13:17.492Z,18.77
2022-12-31T17:15:43.459Z,18.10
2022-12-31T17:18:23.468Z,18.38
2022-12-31T17:20:52.914Z,20.12
2022-12-31T17:23:29.268Z,19.91
2022-12-31T17:26:13.067Z,19.03
2022-12-31T17:28:55.697Z,18.38
2022-12-31T17:31:43.452Z,18.03
2022-12-31T17:34:14.857Z,19.48
2022-12-31T17:37:17.725Z,19.96
2022-12-31T17:40:49.743Z,19.00
2022-12-31T17:42:53.697Z,18.25
2022-12-31T17:45:22.624Z,18.26
2022-12-31T17:47:53.745Z,19.79
2022-12-31T17:50:25.104Z,19.84
2022-12-31T17:52:57.463Z,19.00
2022-12-31T17:55:25.921Z,18.36
2022-12-31T17:58:05.567Z,17.97
2022-12-31T18:00:34.479Z,19.09
2022-12-31T18:03:02.808Z,20.07
2022-12-31T18:05:30.976Z,19.34
2022-12-31T18:08:00.960Z,18.59
2022-12-31T18:10:30.593Z,18.07
2022-12-31T18:12:59.495Z,18.75
2022-12-31T18:15:30.982Z,20.03
2022-12-31T18:18:05.752Z,19.38
2022-12-31T18:20:37.991Z,18.60
2022-12-31T18:26:55.760Z,19.28
2022-12-31T18:29:29.099Z,20.19
2022-12-31T18:32:04.296Z,19.33
2022-12-31T18:34:47.707Z,18.57
2022-12-31T18:37:21.803Z,18.04
2022-12-31T18:39:54.887Z,18.73
2022-12-31T18:42:35.130Z,20.01
2022-12-31T18:45:16.852Z,19.34
2022-12-31T18:47:48.432Z,18.54
2022-12-31T18:50:17.786Z,17.99
2022-12-31T18:52:51.979Z,18.22
2022-12-31T18:55:59.080Z,19.87
2022-12-31T18:58:28.852Z,19.60
2022-12-31T19:00:58.727Z,18.78
2022-12-31T19:03:28.764Z,18.16
2022-12-31T19:05:57.259Z,18.09
2022-12-31T19:08:33.384Z,19.59
2022-12-31T19:11:06.720Z,19.90
2022-12-31T19:13:35.180Z,19.01
2022-12-31T19:16:14.298Z,18.31
2022-12-31T19:18:43.463Z,17.81
2022-12-31T19:21:22.466Z,18.26
2022-12-31T19:23:53.705Z,19.88
2022-12-31T19:26:22.930Z,19.57
2022-12-31T19:28:51.576Z,18.71
2022-12-31T19:31:19.728Z,18.06
2022-12-31T19:33:48.297Z,17.80
2022-12-31T19:36:18.817Z,19.14
2022-12-31T19:38:47.428Z,19.87
2022-12-31T19:41:19.061Z,19.06
2022-12-31T19:43:50.027Z,18.28
2022-12-31T19:46:19.024Z,17.76
2022-12-31T19:48:47.404Z,18.19
2022-12-31T19:51:21.685Z,19.83
2022-12-31T19:53:50.223Z,20.12
2022-12-31T19:56:23.406Z,19.18
2022-12-31T19:58:52.031Z,18.39
2022-12-31T20:01:25.675Z,17.89
2022-12-31T20:04:00.741Z,18.09
2022-12-31T20:06:34.145Z,19.77
2022-12-31T20:09:06.113Z,19.57
2022-12-31T20:11:40.589Z,18.71
2022-12-31T20:14:10.419Z,18.05
2022-12-31T20:16:40.391Z,17.98
2022-12-31T20:19:29.165Z,19.56
2022-12-31T20:22:00.797Z,20.13
2022-12-31T20:25:12.542Z,19.20
2022-12-31T20:28:08.242Z,18.30
2022-12-31T20:30:41.833Z,17.78
2022-12-31T20:33:18.995Z,18.38
2022-12-31T20:35:56.227Z,19.93
2022-12-31T20:38:27.282Z,19.48
2022-12-31T20:41:11.358Z,18.63
2022-12-31T20:43:50.292Z,17.98
2022-12-31T20:46:29.191Z,17.88
2022-12-31T20:49:08.833Z,19.50
2022-12-31T20:51:37.701Z,19.61
2022-12-31T20:54:26.642Z,18.78
2022-12-31T20:56:55.954Z,18.06
2022-12-31T20:59:28.619Z,17.86
2022-12-31T21:04:50.890Z,19.51
2022-12-31T21:07:22.290Z,18.64
2022-12-31T21:14:49.753Z,19.40
2022-12-31T21:18:14.158Z,19.50
2022-12-31T21:20:51.848Z,18.58
2022-12-31T21:23:24.479Z,17.91
2022-12-31T21:25:54.979Z,17.75
2022-12-31T21:28:25.644Z,19.28
2022-12-31T21:30:59.702Z,20.02
2022-12-31T21:33:45.518Z,19.13
2022-12-31T21:36:26.674Z,18.25
2022-12-31T21:39:00.518Z,17.74
2022-12-31T21:41:54.654Z,17.89
2022-12-31T21:44:31.333Z,19.72
2022-12-31T21:47:36.434Z,19.71
2022-12-31T21:50:21.886Z,18.57
2022-12-31T21:52:59.579Z,17.94
2022-12-31T22:15:14.246Z,19.47
2022-12-31T22:18:10.866Z,18.41
2022-12-31T22:20:56.044Z,17.72
2022-12-31T22:23:58.220Z,17.39
2022-12-31T22:26:48.627Z,19.15
2022-12-31T22:29:19.939Z,19.56
2022-12-31T22:31:46.906Z,18.69
2022-12-31T22:34:14.172Z,17.99
2022-12-31T22:36:41.616Z,17.53
2022-12-31T22:39:43.987Z,17.22
2022-12-31T22:42:03.990Z,18.52
2022-12-31T22:44:31.267Z,19.83
2022-12-31T22:46:58.537Z,19.16
2022-12-31T22:49:25.341Z,18.32
2022-12-31T22:51:55.996Z,17.75
2022-12-31T22:54:25.779Z,17.33
2022-12-31T22:56:52.704Z,17.50
2022-12-31T22:59:19.900Z,19.19
2022-12-31T23:01:56.818Z,19.42
2022-12-31T23:04:30.571Z,18.45
2022-12-31T23:06:59.482Z,17.76
2022-12-31T23:09:54.668Z,17.28
2022-12-31T23:12:23.408Z,17.83
2022-12-31T23:15:13.687Z,19.40
2022-12-31T23:17:59.213Z,18.97
2022-12-31T23:20:44.855Z,18.00
2022-12-31T23:23:15.839Z,17.37
2022-12-31T23:25:47.665Z,17.02
2022-12-31T23:28:21.880Z,18.11
2022-12-31T23:30:50.921Z,19.43
2022-12-31T23:33:21.893Z,18.69
2022-12-31T23:35:48.885Z,17.85
2022-12-31T23:38:18.046Z,17.29
2022-12-31T23:40:45.085Z,17.29
2022-12-31T23:43:20.847Z,18.94
2022-12-31T23:45:52.605Z,19.11
2022-12-31T23:48:19.969Z,18.19
2022-12-31T23:50:53.502Z,17.51
2022-12-31T23:53:22.890Z,17.04
2022-12-31T23:55:51.239Z,17.21
2022-12-31T23:58:21.343Z,18.98
